sensor_id;sensor_type;location;lat;lon;timestamp;pressure;altitude;pressure_sealevel;temperature;humidity
30584;BME280;17357;59.404;18.414;2022-09-09T00:09:45;102378.69;;;22.12;86.74
30584;BME280;17357;59.404;18.414;2022-09-09T00:12:18;102372.53;;;22.10;86.62
30584;BME280;17357;59.404;18.414;2022-09-09T00:20:00;102374.81;;;22.17;86.44
30584;BME280;17357;59.404;18.414;2022-09-09T00:22:28;102372.47;;;22.19;86.01
30584;BME280;17357;59.404;18.414;2022-09-09T00:25:02;102361.84;;;22.16;86.24
30584;BME280;17357;59.404;18.414;2022-09-09T00:27:40;102361.50;;;22.17;86.06
30584;BME280;17357;59.404;18.414;2022-09-09T00:32:41;102364.34;;;22.17;85.98
30584;BME280;17357;59.404;18.414;2022-09-09T00:37:35;102353.50;;;22.19;85.26
30584;BME280;17357;59.404;18.414;2022-09-09T00:40:02;102355.53;;;22.19;85.06
30584;BME280;17357;59.404;18.414;2022-09-09T00:42:43;102354.69;;;22.18;85.06
30584;BME280;17357;59.404;18.414;2022-09-09T00:47:46;102353.16;;;22.21;84.26
30584;BME280;17357;59.404;18.414;2022-09-09T00:50:30;102354.69;;;22.18;84.14
30584;BME280;17357;59.404;18.414;2022-09-09T00:53:08;102354.00;;;22.21;84.12
30584;BME280;17357;59.404;18.414;2022-09-09T00:58:07;102350.00;;;22.22;83.98
30584;BME280;17357;59.404;18.414;2022-09-09T01:00:57;102332.31;;;22.13;83.79
30584;BME280;17357;59.404;18.414;2022-09-09T01:03:49;102344.56;;;22.17;83.92
30584;BME280;17357;59.404;18.414;2022-09-09T01:06:45;102348.06;;;22.14;84.44
30584;BME280;17357;59.404;18.414;2022-09-09T01:12:17;102336.50;;;22.07;84.47
30584;BME280;17357;59.404;18.414;2022-09-09T01:14:47;102329.47;;;22.13;84.06
30584;BME280;17357;59.404;18.414;2022-09-09T01:17:20;102338.84;;;22.05;85.04
30584;BME280;17357;59.404;18.414;2022-09-09T01:28:07;102329.25;;;22.18;85.55
30584;BME280;17357;59.404;18.414;2022-09-09T01:30:38;102315.59;;;22.20;85.45
30584;BME280;17357;59.404;18.414;2022-09-09T01:33:04;102320.06;;;22.21;85.24
30584;BME280;17357;59.404;18.414;2022-09-09T01:38:03;102306.28;;;22.20;85.00
30584;BME280;17357;59.404;18.414;2022-09-09T01:40:29;102308.66;;;22.18;85.15
30584;BME280;17357;59.404;18.414;2022-09-09T01:42:55;102313.75;;;22.24;85.10
30584;BME280;17357;59.404;18.414;2022-09-09T01:45:22;102315.38;;;22.25;85.36
30584;BME280;17357;59.404;18.414;2022-09-09T01:47:48;102314.41;;;22.21;85.20
30584;BME280;17357;59.404;18.414;2022-09-09T01:50:16;102309.59;;;22.22;85.46
30584;BME280;17357;59.404;18.414;2022-09-09T01:52:43;102310.44;;;22.22;85.13
30584;BME280;17357;59.404;18.414;2022-09-09T01:55:10;102309.59;;;22.22;85.83
30584;BME280;17357;59.404;18.414;2022-09-09T02:00:14;102297.97;;;22.23;85.80
30584;BME280;17357;59.404;18.414;2022-09-09T02:05:47;102296.53;;;22.17;85.43
30584;BME280;17357;59.404;18.414;2022-09-09T02:08:19;102289.81;;;22.22;85.53
30584;BME280;17357;59.404;18.414;2022-09-09T02:10:52;102279.69;;;22.21;85.72
30584;BME280;17357;59.404;18.414;2022-09-09T02:13:21;102285.22;;;22.17;85.33
30584;BME280;17357;59.404;18.414;2022-09-09T02:15:53;102284.50;;;22.20;85.57
30584;BME280;17357;59.404;18.414;2022-09-09T02:18:26;102284.50;;;22.20;84.63
30584;BME280;17357;59.404;18.414;2022-09-09T02:20:53;102285.00;;;22.22;84.79
30584;BME280;17357;59.404;18.414;2022-09-09T02:23:19;102272.75;;;22.18;84.42
30584;BME280;17357;59.404;18.414;2022-09-09T02:25:46;102271.53;;;22.19;84.65
30584;BME280;17357;59.404;18.414;2022-09-09T02:28:14;102273.09;;;22.17;84.91
30584;BME280;17357;59.404;18.414;2022-09-09T02:30:42;102274.75;;;22.18;84.47
30584;BME280;17357;59.404;18.414;2022-09-09T02:33:13;102264.47;;;22.13;83.96
30584;BME280;17357;59.404;18.414;2022-09-09T02:35:40;102274.84;;;22.21;83.85
30584;BME280;17357;59.404;18.414;2022-09-09T02:38:10;102268.59;;;22.16;84.09
30584;BME280;17357;59.404;18.414;2022-09-09T02:40:36;102259.28;;;22.15;84.04
30584;BME280;17357;59.404;18.414;2022-09-09T02:43:02;102270.59;;;22.15;84.49
30584;BME280;17357;59.404;18.414;2022-09-09T02:45:34;102269.75;;;22.15;84.68
30584;BME280;17357;59.404;18.414;2022-09-09T02:48:14;102268.94;;;22.14;84.51
30584;BME280;17357;59.404;18.414;2022-09-09T02:53:17;102266.94;;;22.15;85.12
30584;BME280;17357;59.404;18.414;2022-09-09T02:55:48;102262.94;;;22.16;84.97
30584;BME280;17357;59.404;18.414;2022-09-09T02:58:14;102259.25;;;22.03;84.93
30584;BME280;17357;59.404;18.414;2022-09-09T03:00:43;102206.78;;;22.14;85.12
30584;BME280;17357;59.404;18.414;2022-09-09T03:03:09;102202.78;;;22.15;85.13
30584;BME280;17357;59.404;18.414;2022-09-09T03:05:35;102193.13;;;22.16;85.65
30584;BME280;17357;59.404;18.414;2022-09-09T03:08:01;102252.81;;;22.15;86.00
30584;BME280;17357;59.404;18.414;2022-09-09T03:10:27;102238.00;;;22.18;85.58
30584;BME280;17357;59.404;18.414;2022-09-09T03:12:52;102230.34;;;22.18;85.97
30584;BME280;17357;59.404;18.414;2022-09-09T03:15:18;102224.69;;;22.18;85.98
30584;BME280;17357;59.404;18.414;2022-09-09T03:17:43;102229.16;;;22.19;86.07
30584;BME280;17357;59.404;18.414;2022-09-09T03:20:09;102221.88;;;22.18;86.57
30584;BME280;17357;59.404;18.414;2022-09-09T03:22:35;102226.69;;;22.18;86.89
30584;BME280;17357;59.404;18.414;2022-09-09T03:25:00;102222.34;;;22.20;87.08
30584;BME280;17357;59.404;18.414;2022-09-09T03:27:28;102220.22;;;22.17;87.25
30584;BME280;17357;59.404;18.414;2022-09-09T03:29:53;102210.91;;;22.17;87.40
30584;BME280;17357;59.404;18.414;2022-09-09T03:32:18;102210.56;;;22.18;87.71
30584;BME280;17357;59.404;18.414;2022-09-09T03:34:44;102200.44;;;22.17;88.38
30584;BME280;17357;59.404;18.414;2022-09-09T03:37:12;102197.63;;;22.17;88.72
30584;BME280;17357;59.404;18.414;2022-09-09T03:39:37;102201.72;;;22.20;88.77
30584;BME280;17357;59.404;18.414;2022-09-09T03:42:03;102207.84;;;22.22;89.23
30584;BME280;17357;59.404;18.414;2022-09-09T03:44:29;102201.38;;;22.21;89.27
30584;BME280;17357;59.404;18.414;2022-09-09T03:46:55;102198.06;;;22.19;89.74
30584;BME280;17357;59.404;18.414;2022-09-09T03:49:21;102200.56;;;22.21;90.17
30584;BME280;17357;59.404;18.414;2022-09-09T03:51:47;102192.91;;;22.21;90.46
30584;BME280;17357;59.404;18.414;2022-09-09T03:54:12;102197.72;;;22.21;91.06
30584;BME280;17357;59.404;18.414;2022-09-09T03:56:37;102189.41;;;22.24;91.13
30584;BME280;17357;59.404;18.414;2022-09-09T03:59:04;102200.31;;;22.26;91.14
30584;BME280;17357;59.404;18.414;2022-09-09T04:01:29;102196.66;;;22.25;91.19
30584;BME280;17357;59.404;18.414;2022-09-09T04:03:54;102187.84;;;22.27;90.99
30584;BME280;17357;59.404;18.414;2022-09-09T04:06:23;102183.13;;;22.31;90.70
30584;BME280;17357;59.404;18.414;2022-09-09T04:08:49;102179.03;;;22.40;91.23
30584;BME280;17357;59.404;18.414;2022-09-09T04:11:15;102174.00;;;22.46;91.27
30584;BME280;17357;59.404;18.414;2022-09-09T04:13:41;102181.50;;;22.54;91.56
30584;BME280;17357;59.404;18.414;2022-09-09T04:16:07;102180.59;;;22.62;91.93
30584;BME280;17357;59.404;18.414;2022-09-09T04:18:34;102184.81;;;22.68;92.51
30584;BME280;17357;59.404;18.414;2022-09-09T04:21:00;102181.66;;;22.70;92.88
30584;BME280;17357;59.404;18.414;2022-09-09T04:23:27;102185.94;;;22.76;93.20
30584;BME280;17357;59.404;18.414;2022-09-09T04:25:55;102179.56;;;22.79;93.97
30584;BME280;17357;59.404;18.414;2022-09-09T04:28:23;102184.13;;;22.83;93.74
30584;BME280;17357;59.404;18.414;2022-09-09T04:30:49;102186.63;;;22.85;94.27
30584;BME280;17357;59.404;18.414;2022-09-09T04:33:15;102185.19;;;22.91;94.18
30584;BME280;17357;59.404;18.414;2022-09-09T04:35:47;102180.03;;;22.93;94.25
30584;BME280;17357;59.404;18.414;2022-09-09T04:38:13;102180.38;;;22.91;94.15
30584;BME280;17357;59.404;18.414;2022-09-09T04:40:50;102182.97;;;22.97;94.24
30584;BME280;17357;59.404;18.414;2022-09-09T04:43:20;102175.78;;;22.99;94.26
30584;BME280;17357;59.404;18.414;2022-09-09T04:45:50;102184.63;;;22.98;93.54
30584;BME280;17357;59.404;18.414;2022-09-09T04:48:17;102186.72;;;23.01;93.30
30584;BME280;17357;59.404;18.414;2022-09-09T04:50:42;102184.72;;;23.01;93.66
30584;BME280;17357;59.404;18.414;2022-09-09T04:53:07;102191.34;;;23.05;93.52
30584;BME280;17357;59.404;18.414;2022-09-09T04:55:34;102193.44;;;23.08;93.59
30584;BME280;17357;59.404;18.414;2022-09-09T04:58:07;102186.50;;;23.06;93.50
30584;BME280;17357;59.404;18.414;2022-09-09T05:00:34;102193.09;;;23.10;93.53
30584;BME280;17357;59.404;18.414;2022-09-09T05:03:05;102189.91;;;23.11;94.02
30584;BME280;17357;59.404;18.414;2022-09-09T05:05:31;102190.34;;;23.13;94.24
30584;BME280;17357;59.404;18.414;2022-09-09T05:08:04;102194.00;;;23.14;94.27
30584;BME280;17357;59.404;18.414;2022-09-09T05:10:34;102178.00;;;23.18;94.59
30584;BME280;17357;59.404;18.414;2022-09-09T05:12:59;102189.31;;;23.18;94.36
30584;BME280;17357;59.404;18.414;2022-09-09T05:15:25;102175.59;;;23.20;95.06
30584;BME280;17357;59.404;18.414;2022-09-09T05:17:50;102181.75;;;23.22;94.88
30584;BME280;17357;59.404;18.414;2022-09-09T05:20:17;102176.44;;;23.20;94.81
30584;BME280;17357;59.404;18.414;2022-09-09T05:22:43;102182.19;;;23.24;94.71
30584;BME280;17357;59.404;18.414;2022-09-09T05:25:09;102177.25;;;23.21;95.17
30584;BME280;17357;59.404;18.414;2022-09-09T05:27:34;102174.19;;;23.26;94.91
30584;BME280;17357;59.404;18.414;2022-09-09T05:29:59;102186.31;;;23.26;94.87
30584;BME280;17357;59.404;18.414;2022-09-09T05:32:25;102186.06;;;23.31;94.87
30584;BME280;17357;59.404;18.414;2022-09-09T05:34:51;102184.41;;;23.30;94.88
30584;BME280;17357;59.404;18.414;2022-09-09T05:37:17;102186.44;;;23.30;95.20
30584;BME280;17357;59.404;18.414;2022-09-09T05:39:43;102186.56;;;23.33;95.07
30584;BME280;17357;59.404;18.414;2022-09-09T05:42:09;102185.72;;;23.33;95.37
30584;BME280;17357;59.404;18.414;2022-09-09T05:44:34;102188.66;;;23.37;95.98
30584;BME280;17357;59.404;18.414;2022-09-09T05:47:00;102188.22;;;23.34;95.81
30584;BME280;17357;59.404;18.414;2022-09-09T05:49:25;102191.47;;;23.37;95.64
30584;BME280;17357;59.404;18.414;2022-09-09T05:51:51;102192.44;;;23.41;96.03
30584;BME280;17357;59.404;18.414;2022-09-09T05:54:16;102189.13;;;23.39;95.51
30584;BME280;17357;59.404;18.414;2022-09-09T05:56:42;102189.59;;;23.41;96.41
30584;BME280;17357;59.404;18.414;2022-09-09T05:59:08;102187.22;;;23.43;96.52
30584;BME280;17357;59.404;18.414;2022-09-09T06:01:35;102195.72;;;23.43;96.60
30584;BME280;17357;59.404;18.414;2022-09-09T06:04:02;102191.34;;;23.45;97.05
30584;BME280;17357;59.404;18.414;2022-09-09T06:06:34;102193.34;;;23.45;96.55
30584;BME280;17357;59.404;18.414;2022-09-09T06:09:02;102188.66;;;23.49;97.05
30584;BME280;17357;59.404;18.414;2022-09-09T06:11:30;102194.44;;;23.52;97.54
30584;BME280;17357;59.404;18.414;2022-09-09T06:13:59;102193.97;;;23.50;98.08
30584;BME280;17357;59.404;18.414;2022-09-09T06:16:26;102199.97;;;23.49;98.17
30584;BME280;17357;59.404;18.414;2022-09-09T06:18:53;102193.63;;;23.52;98.62
30584;BME280;17357;59.404;18.414;2022-09-09T06:21:21;102189.13;;;23.51;99.06
30584;BME280;17357;59.404;18.414;2022-09-09T06:23:47;102189.59;;;23.53;99.66
30584;BME280;17357;59.404;18.414;2022-09-09T06:26:22;102188.88;;;23.56;99.66
30584;BME280;17357;59.404;18.414;2022-09-09T06:28:50;102202.69;;;23.57;99.48
30584;BME280;17357;59.404;18.414;2022-09-09T06:31:17;102187.22;;;23.55;99.48
30584;BME280;17357;59.404;18.414;2022-09-09T06:33:47;102201.72;;;23.53;99.27
30584;BME280;17357;59.404;18.414;2022-09-09T06:36:14;102194.06;;;23.54;99.30
30584;BME280;17357;59.404;18.414;2022-09-09T06:38:40;102199.03;;;23.57;99.23
30584;BME280;17357;59.404;18.414;2022-09-09T06:41:08;102191.78;;;23.59;99.17
30584;BME280;17357;59.404;18.414;2022-09-09T06:43:34;102197.09;;;23.61;99.11
30584;BME280;17357;59.404;18.414;2022-09-09T06:48:30;102196.63;;;23.59;99.20
30584;BME280;17357;59.404;18.414;2022-09-09T06:51:09;102192.88;;;23.55;98.78
30584;BME280;17357;59.404;18.414;2022-09-09T06:53:40;102194.19;;;23.57;98.75
30584;BME280;17357;59.404;18.414;2022-09-09T06:58:37;102193.00;;;23.58;97.96
30584;BME280;17357;59.404;18.414;2022-09-09T07:01:06;102189.69;;;23.56;97.62
30584;BME280;17357;59.404;18.414;2022-09-09T07:03:32;102199.03;;;23.57;97.15
30584;BME280;17357;59.404;18.414;2022-09-09T07:05:59;102190.16;;;23.58;97.29
30584;BME280;17357;59.404;18.414;2022-09-09T07:08:24;102193.81;;;23.59;96.57
30584;BME280;17357;59.404;18.414;2022-09-09T07:10:51;102188.13;;;23.59;96.54
30584;BME280;17357;59.404;18.414;2022-09-09T07:13:26;102192.19;;;23.58;96.00
30584;BME280;17357;59.404;18.414;2022-09-09T07:15:52;102194.28;;;23.61;96.19
30584;BME280;17357;59.404;18.414;2022-09-09T07:18:19;102193.44;;;23.60;95.70
30584;BME280;17357;59.404;18.414;2022-09-09T07:20:53;102190.63;;;23.60;95.51
30584;BME280;17357;59.404;18.414;2022-09-09T07:23:18;102197.59;;;23.63;95.54
30584;BME280;17357;59.404;18.414;2022-09-09T07:25:45;102205.25;;;23.62;96.50
30584;BME280;17357;59.404;18.414;2022-09-09T07:28:10;102206.91;;;23.63;95.89
30584;BME280;17357;59.404;18.414;2022-09-09T07:30:36;102210.19;;;23.65;96.53
30584;BME280;17357;59.404;18.414;2022-09-09T07:33:01;102211.84;;;23.66;95.76
30584;BME280;17357;59.404;18.414;2022-09-09T07:35:28;102209.34;;;23.65;96.47
30584;BME280;17357;59.404;18.414;2022-09-09T07:37:54;102204.06;;;23.63;96.40
30584;BME280;17357;59.404;18.414;2022-09-09T07:40:20;102209.00;;;23.66;96.12
30584;BME280;17357;59.404;18.414;2022-09-09T07:42:47;102206.53;;;23.65;96.51
30584;BME280;17357;59.404;18.414;2022-09-09T07:45:12;102205.34;;;23.66;96.11
30584;BME280;17357;59.404;18.414;2022-09-09T07:47:39;102217.16;;;23.68;96.70
30584;BME280;17357;59.404;18.414;2022-09-09T07:50:06;102208.91;;;23.63;97.27
30584;BME280;17357;59.404;18.414;2022-09-09T07:52:33;102204.53;;;23.65;96.97
30584;BME280;17357;59.404;18.414;2022-09-09T07:54:59;102211.50;;;23.68;97.24
30584;BME280;17357;59.404;18.414;2022-09-09T07:57:25;102218.41;;;23.70;96.92
30584;BME280;17357;59.404;18.414;2022-09-09T07:59:50;102204.16;;;23.67;97.30
30584;BME280;17357;59.404;18.414;2022-09-09T08:02:17;102213.50;;;23.67;97.43
30584;BME280;17357;59.404;18.414;2022-09-09T08:04:42;102209.13;;;23.70;97.67
30584;BME280;17357;59.404;18.414;2022-09-09T08:07:07;102214.41;;;23.71;97.47
30584;BME280;17357;59.404;18.414;2022-09-09T08:09:33;102204.38;;;23.74;97.17
30584;BME280;17357;59.404;18.414;2022-09-09T08:11:59;102218.53;;;23.74;98.02
30584;BME280;17357;59.404;18.414;2022-09-09T08:14:26;102222.66;;;23.77;97.38
30584;BME280;17357;59.404;18.414;2022-09-09T08:16:51;102227.53;;;23.76;97.24
30584;BME280;17357;59.404;18.414;2022-09-09T08:19:18;102229.16;;;23.77;97.35
30584;BME280;17357;59.404;18.414;2022-09-09T08:21:44;102233.19;;;23.76;97.83
30584;BME280;17357;59.404;18.414;2022-09-09T08:24:11;102239.78;;;23.80;98.01
30584;BME280;17357;59.404;18.414;2022-09-09T08:26:42;102238.38;;;23.74;98.76
30584;BME280;17357;59.404;18.414;2022-09-09T08:29:09;102241.69;;;23.76;99.34
30584;BME280;17357;59.404;18.414;2022-09-09T08:31:40;102241.78;;;23.80;99.33
30584;BME280;17357;59.404;18.414;2022-09-09T08:34:06;102236.13;;;23.80;100.00
30584;BME280;17357;59.404;18.414;2022-09-09T08:36:34;102227.25;;;23.81;100.00
30584;BME280;17357;59.404;18.414;2022-09-09T08:39:01;102237.38;;;23.82;100.00
30584;BME280;17357;59.404;18.414;2022-09-09T08:52:19;102233.38;;;23.83;100.00
30584;BME280;17357;59.404;18.414;2022-09-09T08:54:46;102233.84;;;23.85;100.00
30584;BME280;17357;59.404;18.414;2022-09-09T08:57:19;102226.88;;;23.83;100.00
30584;BME280;17357;59.404;18.414;2022-09-09T08:59:46;102221.22;;;23.83;100.00
30584;BME280;17357;59.404;18.414;2022-09-09T09:02:30;102230.53;;;23.83;100.00
30584;BME280;17357;59.404;18.414;2022-09-09T09:05:23;102223.22;;;23.82;100.00
30584;BME280;17357;59.404;18.414;2022-09-09T09:10:39;102231.94;;;23.89;100.00
30584;BME280;17357;59.404;18.414;2022-09-09T09:15:50;102240.00;;;23.87;100.00
30584;BME280;17357;59.404;18.414;2022-09-09T09:18:18;102227.81;;;23.87;100.00
30584;BME280;17357;59.404;18.414;2022-09-09T09:23:37;102227.00;;;23.86;100.00
30584;BME280;17357;59.404;18.414;2022-09-09T09:26:07;102236.78;;;23.89;100.00
30584;BME280;17357;59.404;18.414;2022-09-09T09:28:35;102227.44;;;23.88;100.00
30584;BME280;17357;59.404;18.414;2022-09-09T09:31:11;102230.41;;;23.92;100.00
30584;BME280;17357;59.404;18.414;2022-09-09T09:36:07;102218.50;;;23.86;100.00
30584;BME280;17357;59.404;18.414;2022-09-09T09:38:34;102224.38;;;23.93;100.00
30584;BME280;17357;59.404;18.414;2022-09-09T09:41:00;102219.88;;;23.92;100.00
30584;BME280;17357;59.404;18.414;2022-09-09T09:43:30;102229.09;;;23.89;100.00
30584;BME280;17357;59.404;18.414;2022-09-09T09:45:57;102226.75;;;23.91;100.00
30584;BME280;17357;59.404;18.414;2022-09-09T09:48:26;102220.34;;;23.94;100.00
30584;BME280;17357;59.404;18.414;2022-09-09T09:50:58;102219.31;;;23.87;96.26
30584;BME280;17357;59.404;18.414;2022-09-09T09:56:04;102208.13;;;23.78;90.30
30584;BME280;17357;59.404;18.414;2022-09-09T09:58:32;102210.13;;;23.78;89.91
30584;BME280;17357;59.404;18.414;2022-09-09T10:00:59;102203.66;;;23.77;88.66
30584;BME280;17357;59.404;18.414;2022-09-09T10:05:51;102207.03;;;23.83;90.98
30584;BME280;17357;59.404;18.414;2022-09-09T10:08:17;102202.59;;;23.82;93.01
30584;BME280;17357;59.404;18.414;2022-09-09T10:11:06;102212.63;;;23.79;94.51
30584;BME280;17357;59.404;18.414;2022-09-09T10:14:11;102205.78;;;23.80;95.62
30584;BME280;17357;59.404;18.414;2022-09-09T10:22:07;102194.44;;;23.80;98.43
30584;BME280;17357;59.404;18.414;2022-09-09T10:33:39;102189.69;;;23.84;99.52
30584;BME280;17357;59.404;18.414;2022-09-09T10:36:17;102197.94;;;23.89;99.33
30584;BME280;17357;59.404;18.414;2022-09-09T10:38:59;102196.28;;;23.88;99.50
30584;BME280;17357;59.404;18.414;2022-09-09T10:41:48;102204.34;;;23.86;99.29
30584;BME280;17357;59.404;18.414;2022-09-09T10:55:35;102196.28;;;23.88;99.62
30584;BME280;17357;59.404;18.414;2022-09-09T10:58:03;102187.78;;;23.88;99.54
30584;BME280;17357;59.404;18.414;2022-09-09T11:03:01;102199.78;;;23.97;99.54
30584;BME280;17357;59.404;18.414;2022-09-09T11:05:42;102191.81;;;23.87;91.92
30584;BME280;17357;59.404;18.414;2022-09-09T11:08:20;102189.16;;;23.94;95.48
30584;BME280;17357;59.404;18.414;2022-09-09T11:11:02;102195.66;;;23.95;96.61
30584;BME280;17357;59.404;18.414;2022-09-09T11:22:01;102183.63;;;23.98;99.32
30584;BME280;17357;59.404;18.414;2022-09-09T11:24:36;102186.31;;;23.94;100.00
30584;BME280;17357;59.404;18.414;2022-09-09T11:27:23;102183.50;;;23.94;100.00
30584;BME280;17357;59.404;18.414;2022-09-09T11:30:05;102180.66;;;23.94;100.00
30584;BME280;17357;59.404;18.414;2022-09-09T11:38:32;102173.47;;;23.97;100.00
30584;BME280;17357;59.404;18.414;2022-09-09T11:41:07;102172.28;;;23.98;100.00
30584;BME280;17357;59.404;18.414;2022-09-09T11:43:53;102162.13;;;23.97;100.00
30584;BME280;17357;59.404;18.414;2022-09-09T11:46:33;102160.13;;;23.97;100.00
30584;BME280;17357;59.404;18.414;2022-09-09T11:49:05;102158.53;;;24.00;100.00
30584;BME280;17357;59.404;18.414;2022-09-09T11:51:33;102166.34;;;24.03;100.00
30584;BME280;17357;59.404;18.414;2022-09-09T11:54:02;102157.75;;;23.99;100.00
30584;BME280;17357;59.404;18.414;2022-09-09T11:56:47;102158.53;;;24.00;100.00
30584;BME280;17357;59.404;18.414;2022-09-09T11:59:29;102160.00;;;23.94;100.00
30584;BME280;17357;59.404;18.414;2022-09-09T12:02:02;102160.59;;;23.99;100.00
30584;BME280;17357;59.404;18.414;2022-09-09T12:04:32;102163.66;;;23.94;100.00
30584;BME280;17357;59.404;18.414;2022-09-09T12:07:00;102164.59;;;23.98;100.00
30584;BME280;17357;59.404;18.414;2022-09-09T12:12:18;102170.06;;;23.91;98.35
30584;BME280;17357;59.404;18.414;2022-09-09T12:14:59;102174.56;;;23.92;98.96
30584;BME280;17357;59.404;18.414;2022-09-09T12:17:28;102170.28;;;23.98;99.19
30584;BME280;17357;59.404;18.414;2022-09-09T12:20:13;102160.00;;;23.94;99.04
30584;BME280;17357;59.404;18.414;2022-09-09T12:31:05;102161.28;;;23.96;99.31
30584;BME280;17357;59.404;18.414;2022-09-09T12:33:38;102168.25;;;23.99;100.00
30584;BME280;17357;59.404;18.414;2022-09-09T12:36:12;102170.63;;;23.97;98.63
30584;BME280;17357;59.404;18.414;2022-09-09T12:38:40;102163.84;;;24.01;98.80
30584;BME280;17357;59.404;18.414;2022-09-09T12:41:21;102160.94;;;23.98;99.47
30584;BME280;17357;59.404;18.414;2022-09-09T12:43:47;102171.53;;;24.01;99.75
30584;BME280;17357;59.404;18.414;2022-09-09T12:46:39;102163.41;;;23.99;99.23
30584;BME280;17357;59.404;18.414;2022-09-09T12:51:51;102157.75;;;23.99;94.37
30584;BME280;17357;59.404;18.414;2022-09-09T12:54:17;102149.41;;;23.91;92.37
30584;BME280;17357;59.404;18.414;2022-09-09T12:56:46;102146.78;;;23.98;94.58
30584;BME280;17357;59.404;18.414;2022-09-09T12:59:24;102148.09;;;23.88;90.40
30584;BME280;17357;59.404;18.414;2022-09-09T13:01:57;102147.94;;;23.81;87.37
30584;BME280;17357;59.404;18.414;2022-09-09T13:04:23;102148.22;;;23.92;86.86
30584;BME280;17357;59.404;18.414;2022-09-09T13:06:48;102153.53;;;23.93;87.02
30584;BME280;17357;59.404;18.414;2022-09-09T13:09:14;102147.13;;;23.96;88.99
30584;BME280;17357;59.404;18.414;2022-09-09T13:11:47;102156.38;;;23.93;87.58
30584;BME280;17357;59.404;18.414;2022-09-09T13:14:18;102160.00;;;23.94;86.81
30584;BME280;17357;59.404;18.414;2022-09-09T13:17:02;102163.94;;;23.89;87.04
30584;BME280;17357;59.404;18.414;2022-09-09T13:19:35;102152.72;;;23.93;87.21
30584;BME280;17357;59.404;18.414;2022-09-09T13:22:16;102145.81;;;23.94;89.01
30584;BME280;17357;59.404;18.414;2022-09-09T13:24:44;102133.88;;;24.00;92.59
30584;BME280;17357;59.404;18.414;2022-09-09T13:27:39;102145.47;;;23.95;93.54
30584;BME280;17357;59.404;18.414;2022-09-09T13:30:26;102144.50;;;24.03;94.73
30584;BME280;17357;59.404;18.414;2022-09-09T13:33:01;102148.22;;;24.07;95.86
30584;BME280;17357;59.404;18.414;2022-09-09T13:35:27;102141.84;;;24.10;97.17
30584;BME280;17357;59.404;18.414;2022-09-09T13:37:53;102147.97;;;24.12;98.04
30584;BME280;17357;59.404;18.414;2022-09-09T13:40:22;102149.97;;;24.12;98.02
30584;BME280;17357;59.404;18.414;2022-09-09T13:42:52;102138.47;;;24.05;93.09
30584;BME280;17357;59.404;18.414;2022-09-09T13:45:22;102134.34;;;24.02;91.16
30584;BME280;17357;59.404;18.414;2022-09-09T13:47:49;102136.44;;;24.05;90.01
30584;BME280;17357;59.404;18.414;2022-09-09T13:50:28;102145.19;;;24.00;90.19
30584;BME280;17357;59.404;18.414;2022-09-09T13:52:56;102131.84;;;24.01;91.37
30584;BME280;17357;59.404;18.414;2022-09-09T13:55:25;102132.06;;;24.08;93.84
30584;BME280;17357;59.404;18.414;2022-09-09T13:57:52;102136.06;;;24.07;95.05
30584;BME280;17357;59.404;18.414;2022-09-09T14:00:18;102149.88;;;24.08;96.35
30584;BME280;17357;59.404;18.414;2022-09-09T14:02:43;102141.84;;;24.10;96.48
30584;BME280;17357;59.404;18.414;2022-09-09T14:05:09;102138.06;;;24.06;96.91
30584;BME280;17357;59.404;18.414;2022-09-09T14:07:36;102137.81;;;24.11;96.87
30584;BME280;17357;59.404;18.414;2022-09-09T14:10:03;102145.13;;;24.12;96.75
30584;BME280;17357;59.404;18.414;2022-09-09T14:12:28;102141.09;;;24.13;96.83
30584;BME280;17357;59.404;18.414;2022-09-09T14:14:53;102132.25;;;24.15;96.78
30584;BME280;17357;59.404;18.414;2022-09-09T14:17:19;102124.56;;;24.15;96.69
30584;BME280;17357;59.404;18.414;2022-09-09T14:19:44;102129.78;;;24.13;96.75
30584;BME280;17357;59.404;18.414;2022-09-09T14:22:11;102134.72;;;24.17;96.64
30584;BME280;17357;59.404;18.414;2022-09-09T14:24:36;102126.47;;;24.11;97.03
30584;BME280;17357;59.404;18.414;2022-09-09T14:27:01;102142.00;;;24.17;97.59
30584;BME280;17357;59.404;18.414;2022-09-09T14:29:27;102136.34;;;24.17;97.18
30584;BME280;17357;59.404;18.414;2022-09-09T14:31:52;102127.41;;;24.15;97.27
30584;BME280;17357;59.404;18.414;2022-09-09T14:34:17;102137.69;;;24.20;97.59
30584;BME280;17357;59.404;18.414;2022-09-09T14:36:43;102127.16;;;24.21;97.44
30584;BME280;17357;59.404;18.414;2022-09-09T14:39:10;102126.69;;;24.19;97.54
30584;BME280;17357;59.404;18.414;2022-09-09T14:41:35;102132.00;;;24.20;97.81
30584;BME280;17357;59.404;18.414;2022-09-09T14:44:01;102130.81;;;24.21;97.42
30584;BME280;17357;59.404;18.414;2022-09-09T14:46:26;102132.81;;;24.21;97.59
30584;BME280;17357;59.404;18.414;2022-09-09T14:48:52;102130.91;;;24.25;97.87
30584;BME280;17357;59.404;18.414;2022-09-09T14:51:22;102124.78;;;24.23;97.75
30584;BME280;17357;59.404;18.414;2022-09-09T14:53:50;102137.81;;;24.11;97.96
30584;BME280;17357;59.404;18.414;2022-09-09T14:56:18;102121.50;;;24.21;97.98
30584;BME280;17357;59.404;18.414;2022-09-09T14:58:44;102122.31;;;24.21;97.86
30584;BME280;17357;59.404;18.414;2022-09-09T15:01:12;102127.16;;;24.21;97.69
30584;BME280;17357;59.404;18.414;2022-09-09T15:03:40;102121.97;;;24.23;97.32